Time;durP1;ratioP1;P1;durP2;ratioP2;P2;SDS_P1;SDS_P2;PMS_P1;PMS_P2;Temp;Humidity;BMP_temperature;BMP_pressure;BME280_temperature;BME280_humidity;BME280_pressure;Samples;Min_cycle;Max_cycle;Signal;HPM_P1;HPM_P2
2022/05/05 00:01:40;;;;;;;6.00;5.33;;;;;;;6.08;82.45;96019.59;1760714;81;21027;-66
2022/05/05 00:04:07;;;;;;;9.57;5.20;;;;;;;6.15;82.73;96010.90;1760702;81;21006;-66
2022/05/05 00:06:34;;;;;;;5.57;4.90;;;;;;;6.24;82.35;96005.69;1760348;81;21550;-67
2022/05/05 00:09:01;;;;;;;5.60;4.27;;;;;;;6.26;81.56;95998.71;1760786;81;21002;-66
2022/05/05 00:14:31;;;;;;;4.90;4.40;;;;;;;6.24;80.93;95997.83;1760748;81;20955;-66
2022/05/05 00:17:06;;;;;;;5.63;4.87;;;;;;;6.15;80.75;96004.35;1760401;81;21101;-66
2022/05/05 00:19:35;;;;;;;7.80;5.00;;;;;;;6.17;81.00;96010.89;1760838;81;21034;-66
2022/05/05 00:22:04;;;;;;;6.47;5.13;;;;;;;6.22;81.41;96014.00;1760554;81;20994;-66
2022/05/05 00:24:32;;;;;;;5.47;4.93;;;;;;;6.26;81.35;96009.64;1760522;81;21571;-66
2022/05/05 00:26:59;;;;;;;7.07;4.83;;;;;;;6.23;81.07;96014.87;1760752;81;21042;-66
2022/05/05 00:29:26;;;;;;;6.90;5.03;;;;;;;6.28;81.13;96015.77;1760297;81;21090;-66
2022/05/05 00:31:53;;;;;;;6.30;5.20;;;;;;;6.18;80.54;96012.66;1760851;81;20959;-66
2022/05/05 00:34:19;;;;;;;6.77;4.90;;;;;;;6.15;80.30;96013.92;1760763;81;21046;-66
2022/05/05 00:36:46;;;;;;;6.27;4.87;;;;;;;6.18;80.88;96015.28;1761730;81;20987;-66
2022/05/05 00:39:13;;;;;;;6.57;5.10;;;;;;;6.25;81.13;96014.45;1762116;81;21070;-66
2022/05/05 00:41:43;;;;;;;5.40;4.40;;;;;;;6.35;81.15;96012.31;1762166;81;21030;-66
2022/05/05 00:44:11;;;;;;;6.53;4.23;;;;;;;6.32;80.64;96010.96;1761822;81;21026;-66
2022/05/05 00:46:38;;;;;;;5.33;4.77;;;;;;;6.19;80.12;96023.13;1761943;81;20983;-66
2022/05/05 00:49:06;;;;;;;6.47;5.63;;;;;;;6.17;80.77;96026.17;1761723;81;21022;-66
2022/05/05 00:51:33;;;;;;;7.17;5.77;;;;;;;6.17;80.79;96018.75;1761983;81;21031;-66
2022/05/05 00:54:00;;;;;;;6.60;5.57;;;;;;;6.17;81.00;96023.99;1761892;81;21054;-67
2022/05/05 00:56:28;;;;;;;8.60;4.97;;;;;;;6.18;80.72;96025.32;1761901;81;21019;-66
2022/05/05 00:58:57;;;;;;;6.40;5.63;;;;;;;6.06;80.18;96019.56;1761756;81;21077;-66
2022/05/05 01:01:24;;;;;;;6.83;5.50;;;;;;;5.94;80.27;96026.04;1762245;81;20984;-66
2022/05/05 01:03:51;;;;;;;7.00;5.90;;;;;;;5.88;80.41;96023.36;1762004;81;21010;-66
2022/05/05 01:06:18;;;;;;;8.63;5.97;;;;;;;5.88;80.57;96025.11;1761786;81;21022;-66
2022/05/05 01:08:46;;;;;;;6.03;5.43;;;;;;;5.90;80.67;96028.63;1761652;81;21054;-66
2022/05/05 01:11:14;;;;;;;6.43;5.00;;;;;;;5.90;81.07;96029.49;1761988;81;20960;-66
2022/05/05 01:13:42;;;;;;;7.17;4.80;;;;;;;5.69;81.37;96038.05;1761660;81;21142;-66
2022/05/05 01:16:10;;;;;;;6.73;5.73;;;;;;;5.60;80.76;96034.95;1761956;81;21099;-66
2022/05/05 01:18:39;;;;;;;7.77;5.97;;;;;;;5.59;81.03;96037.14;1761937;81;21011;-66
2022/05/05 01:21:09;;;;;;;6.67;5.63;;;;;;;5.64;80.76;96038.45;1762144;81;21018;-66
2022/05/05 01:23:35;;;;;;;7.30;5.50;;;;;;;5.64;80.90;96038.45;1761923;81;21030;-66
2022/05/05 01:28:49;;;;;;;6.37;5.37;;;;;;;5.57;80.81;96040.17;1761847;81;21059;-66
2022/05/05 01:31:16;;;;;;;8.90;5.97;;;;;;;5.46;80.41;96040.94;1762141;81;21030;-66
2022/05/05 01:33:42;;;;;;;7.37;5.27;;;;;;;5.37;80.45;96036.52;1761708;81;21094;-66
2022/05/05 01:36:09;;;;;;;7.33;6.27;;;;;;;5.30;80.95;96035.57;1760605;81;21062;-66
2022/05/05 01:38:36;;;;;;;6.93;5.33;;;;;;;5.32;81.54;96035.59;1760580;81;21022;-66
2022/05/05 01:41:06;;;;;;;7.57;5.90;;;;;;;5.33;81.85;96040.83;1760321;81;21019;-66
2022/05/05 01:43:34;;;;;;;6.33;5.73;;;;;;;5.38;81.77;96042.17;1760719;81;21130;-66
2022/05/05 01:46:01;;;;;;;5.40;4.90;;;;;;;5.42;81.85;96040.91;1760629;81;20971;-66
2022/05/05 01:48:28;;;;;;;5.23;4.73;;;;;;;5.35;81.67;96042.16;1760203;81;21027;-65
2022/05/05 01:50:55;;;;;;;6.67;5.33;;;;;;;5.30;82.34;96039.94;1760592;81;21523;-65
2022/05/05 01:53:23;;;;;;;6.37;5.33;;;;;;;5.37;82.74;96046.98;1760470;81;21503;-66
2022/05/05 01:55:50;;;;;;;5.90;4.50;;;;;;;5.37;82.57;96045.23;1760727;81;21030;-66
2022/05/05 01:58:17;;;;;;;8.03;4.77;;;;;;;5.44;82.64;96040.91;1760634;81;21083;-66
2022/05/05 02:00:44;;;;;;;5.70;5.03;;;;;;;5.53;82.35;96047.98;1760615;81;21058;-66
2022/05/05 02:03:13;;;;;;;6.20;4.10;;;;;;;5.57;82.21;96042.78;1761031;81;21046;-66
2022/05/05 02:05:45;;;;;;;6.20;4.63;;;;;;;5.62;81.80;96042.39;1760964;81;21426;-66
2022/05/05 02:08:13;;;;;;;5.37;4.53;;;;;;;5.60;81.50;96048.03;1760403;81;21512;-67
2022/05/05 02:10:40;;;;;;;6.23;5.00;;;;;;;5.54;81.39;96052.33;1760780;81;21059;-67
2022/05/05 02:13:08;;;;;;;5.50;4.50;;;;;;;5.53;81.55;96044.05;1760913;81;21034;-66
2022/05/05 02:15:35;;;;;;;5.60;4.87;;;;;;;5.44;81.07;96051.38;1760647;81;21022;-67
2022/05/05 02:18:10;;;;;;;5.57;4.23;;;;;;;5.37;81.35;96053.52;1760439;81;21142;-66
2022/05/05 02:20:40;;;;;;;7.43;4.83;;;;;;;5.31;81.17;96058.68;1760922;81;21010;-66
2022/05/05 02:23:08;;;;;;;8.03;5.30;;;;;;;5.17;81.13;96060.74;1760448;81;20971;-66
2022/05/05 02:25:36;;;;;;;5.10;4.60;;;;;;;5.10;81.38;96072.00;1760704;81;21103;-66
2022/05/05 02:28:04;;;;;;;5.90;4.57;;;;;;;5.06;82.68;96070.20;1760803;81;20967;-66
2022/05/05 02:30:31;;;;;;;6.53;4.53;;;;;;;5.09;82.49;96071.57;1760470;81;21009;-67
2022/05/05 02:32:57;;;;;;;8.30;5.03;;;;;;;5.07;82.60;96065.88;1760764;81;21019;-67
2022/05/05 02:35:24;;;;;;;8.00;4.53;;;;;;;5.15;82.89;96069.44;1761485;81;21023;-67
2022/05/05 02:40:37;;;;;;;6.17;5.07;;;;;;;5.29;82.47;96072.17;1762288;81;21006;-67
2022/05/05 02:43:06;;;;;;;6.63;5.70;;;;;;;5.27;81.73;96083.08;1761955;81;20971;-67
2022/05/05 02:45:33;;;;;;;5.03;4.53;;;;;;;5.24;81.81;96081.72;1762059;81;21090;-67
2022/05/05 02:48:00;;;;;;;6.80;5.70;;;;;;;5.20;81.66;96083.00;1762123;81;21046;-66
2022/05/05 02:50:27;;;;;;;6.53;5.80;;;;;;;5.12;81.45;96083.36;1761767;81;21018;-66
2022/05/05 02:52:55;;;;;;;5.63;5.07;;;;;;;4.98;81.68;96085.81;1761998;81;21037;-66
2022/05/05 02:55:22;;;;;;;6.33;5.23;;;;;;;4.97;81.96;96089.30;1762084;81;20994;-66
2022/05/05 02:57:50;;;;;;;6.60;5.57;;;;;;;4.89;81.61;96091.37;1761707;81;21039;-66
2022/05/05 03:00:18;;;;;;;4.93;4.43;;;;;;;4.87;82.25;96095.30;1761724;81;21113;-66
2022/05/05 03:02:45;;;;;;;7.07;5.90;;;;;;;4.88;82.32;96094.86;1762045;81;21517;-66
2022/05/05 03:05:14;;;;;;;7.20;6.50;;;;;;;4.81;82.15;96093.03;1762086;81;20983;-66
2022/05/05 03:07:42;;;;;;;6.23;4.90;;;;;;;4.86;82.46;96099.19;1761939;81;21046;-67
2022/05/05 03:10:11;;;;;;;6.57;5.90;;;;;;;4.86;82.31;96096.57;1762075;81;21034;-67
2022/05/05 03:12:38;;;;;;;6.00;5.03;;;;;;;4.86;82.17;96100.05;1761918;81;21027;-67
2022/05/05 03:15:07;;;;;;;8.43;5.90;;;;;;;4.84;82.35;96108.74;1762129;81;21015;-67
2022/05/05 03:17:35;;;;;;;6.30;5.37;;;;;;;4.80;82.82;96109.59;1762261;81;20967;-66
2022/05/05 03:20:03;;;;;;;5.63;4.97;;;;;;;4.75;83.46;96111.70;1761934;81;20979;-67
2022/05/05 03:22:30;;;;;;;14.17;12.77;;;;;;;4.69;83.14;96110.77;1762036;81;21019;-66
2022/05/05 03:24:56;;;;;;;9.23;7.17;;;;;;;4.67;83.33;96112.05;1761752;81;21547;-67
2022/05/05 03:27:23;;;;;;;7.77;6.70;;;;;;;4.67;83.51;96113.35;1762308;81;21050;-66
2022/05/05 03:29:50;;;;;;;6.73;5.73;;;;;;;4.69;84.22;96116.00;1762072;81;21018;-66
2022/05/05 03:32:16;;;;;;;7.40;4.50;;;;;;;4.76;83.73;96109.95;1761528;81;21098;-66
2022/05/05 03:34:43;;;;;;;6.20;5.60;;;;;;;4.78;83.42;96111.73;1761994;81;21460;-66
2022/05/05 03:37:10;;;;;;;7.47;5.37;;;;;;;4.79;83.13;96111.33;1761912;81;20995;-66
2022/05/05 03:39:36;;;;;;;5.97;5.40;;;;;;;4.85;83.18;96114.00;1761411;81;20995;-66
2022/05/05 03:42:04;;;;;;;4.83;4.20;;;;;;;4.84;83.00;96113.57;1762227;81;20956;-66
2022/05/05 03:44:31;;;;;;;6.00;5.30;;;;;;;4.94;83.48;96112.81;1761959;81;21504;-66
2022/05/05 03:46:58;;;;;;;7.13;5.10;;;;;;;4.97;83.17;96112.84;1761945;81;21469;-66
2022/05/05 03:49:24;;;;;;;5.87;5.27;;;;;;;4.96;83.21;96112.41;1762098;81;21014;-66
2022/05/05 03:51:51;;;;;;;16.30;10.20;;;;;;;5.00;84.06;96119.84;1761753;81;21026;-67
2022/05/05 03:54:17;;;;;;;13.23;8.97;;;;;;;5.13;84.36;96124.78;1761758;81;21047;-67
2022/05/05 03:56:44;;;;;;;30.40;16.57;;;;;;;5.26;84.22;96125.78;1762130;81;20951;-67
2022/05/05 03:59:11;;;;;;;8.50;5.20;;;;;;;5.40;84.10;96131.61;1762001;81;21065;-71
2022/05/05 04:01:37;;;;;;;69.23;33.17;;;;;;;5.47;83.84;96127.33;1761988;81;21508;-72
2022/05/05 04:04:04;;;;;;;85.73;41.80;;;;;;;5.57;83.83;96121.31;1761769;81;21035;-68
2022/05/05 04:06:31;;;;;;;8.37;5.20;;;;;;;5.76;84.06;96127.58;1761820;81;21027;-69
2022/05/05 04:08:58;;;;;;;5.33;4.50;;;;;;;5.78;83.14;96123.23;1761576;81;21027;-69
2022/05/05 04:11:25;;;;;;;7.33;4.47;;;;;;;5.89;83.57;96124.62;1761849;81;21915;-69
2022/05/05 04:13:51;;;;;;;5.13;4.63;;;;;;;5.93;83.22;96126.41;1762113;81;21034;-68
2022/05/05 04:16:18;;;;;;;18.13;13.07;;;;;;;5.90;82.95;96126.39;1761892;81;20983;-69
2022/05/05 04:18:45;;;;;;;30.87;18.73;;;;;;;5.90;83.94;96123.78;1762215;81;21002;-69
2022/05/05 04:21:11;;;;;;;39.10;23.37;;;;;;;6.04;84.15;96126.08;1761811;81;21121;-69
2022/05/05 04:23:38;;;;;;;37.37;21.30;;;;;;;6.22;84.04;96133.63;1761948;81;21501;-72
2022/05/05 04:26:06;;;;;;;30.23;17.93;;;;;;;6.38;83.60;96129.39;1761932;81;21596;-70
2022/05/05 04:28:33;;;;;;;24.83;15.77;;;;;;;6.46;83.37;96127.69;1762058;81;20998;-69
2022/05/05 04:31:00;;;;;;;20.40;14.97;;;;;;;6.52;83.21;96127.70;1761903;81;21030;-70
2022/05/05 04:33:27;;;;;;;30.30;19.90;;;;;;;6.69;83.15;96127.80;1762177;81;20990;-70
2022/05/05 04:35:54;;;;;;;22.07;15.20;;;;;;;6.82;83.06;96119.12;1760789;81;21567;-70
2022/05/05 04:38:21;;;;;;;18.63;11.67;;;;;;;6.99;83.46;96113.95;1760684;81;21071;-70
2022/05/05 04:40:49;;;;;;;16.63;12.60;;;;;;;7.19;83.47;96115.77;1760674;81;21042;-70
2022/05/05 04:43:17;;;;;;;14.67;11.53;;;;;;;7.35;82.99;96109.23;1760171;81;20999;-70
2022/05/05 04:45:44;;;;;;;15.13;10.37;;;;;;;7.47;82.50;96110.14;1760780;81;21022;-70
2022/05/05 04:48:10;;;;;;;11.17;9.77;;;;;;;7.56;82.08;96112.35;1760695;81;21018;-69
2022/05/05 04:50:37;;;;;;;12.53;10.60;;;;;;;7.64;81.62;96124.18;1760630;81;21487;-69
2022/05/05 04:53:04;;;;;;;16.87;12.67;;;;;;;7.71;81.71;96122.41;1760768;81;21057;-68
2022/05/05 04:55:30;;;;;;;14.13;10.10;;;;;;;7.78;81.66;96118.92;1760470;81;21018;-68
2022/05/05 04:57:57;;;;;;;11.40;9.47;;;;;;;7.83;81.38;96118.48;1760401;81;20983;-68
2022/05/05 05:00:23;;;;;;;15.77;9.57;;;;;;;7.90;81.66;96118.94;1759780;81;21101;-67
2022/05/05 05:02:50;;;;;;;16.40;8.77;;;;;;;7.97;81.40;96121.13;1759989;81;21125;-67
2022/05/05 05:05:16;;;;;;;10.30;7.77;;;;;;;8.08;81.31;96118.05;1759631;81;20991;-70
2022/05/05 05:07:43;;;;;;;11.13;8.40;;;;;;;8.21;81.40;96118.91;1759758;81;21576;-69
2022/05/05 05:10:11;;;;;;;11.03;8.77;;;;;;;8.33;80.89;96106.20;1759982;81;21033;-68
2022/05/05 05:12:38;;;;;;;10.87;9.10;;;;;;;8.45;80.87;96108.41;1765244;81;21081;-66
2022/05/05 05:15:07;;;;;;;10.17;9.17;;;;;;;8.59;81.04;96107.48;1765627;81;21145;-65
2022/05/05 05:17:34;;;;;;;13.93;9.67;;;;;;;8.73;81.03;96104.38;1765918;81;21022;-67
2022/05/05 05:20:01;;;;;;;14.27;10.40;;;;;;;8.88;80.91;96100.83;1765349;81;21104;-66
2022/05/05 05:22:27;;;;;;;14.73;9.10;;;;;;;9.01;80.84;96101.64;1765196;81;21096;-65
2022/05/05 05:24:54;;;;;;;10.33;9.23;;;;;;;9.08;80.23;96104.24;1765316;81;21612;-67
2022/05/05 05:27:20;;;;;;;12.97;9.10;;;;;;;9.23;80.61;96107.69;1765162;81;21602;-66
2022/05/05 05:29:47;;;;;;;10.93;9.30;;;;;;;9.39;80.87;96101.44;1765148;81;21065;-67
2022/05/05 05:32:14;;;;;;;10.97;8.30;;;;;;;9.53;80.40;96098.30;1764834;81;21122;-66
2022/05/05 05:34:40;;;;;;;10.10;8.50;;;;;;;9.63;79.69;96097.80;1765931;81;21017;-67
2022/05/05 05:37:07;;;;;;;9.53;8.37;;;;;;;9.69;78.92;96101.69;1775832;79;21105;-66
2022/05/05 05:39:34;;;;;;;10.37;8.63;;;;;;;9.85;79.17;96093.67;1777342;80;21062;-68
2022/05/05 05:42:00;;;;;;;9.83;8.20;;;;;;;10.03;79.21;96093.95;1777479;80;21047;-67
2022/05/05 05:44:27;;;;;;;10.90;8.20;;;;;;;10.22;79.10;96090.73;1777586;80;21054;-65
2022/05/05 05:46:54;;;;;;;8.40;7.50;;;;;;;10.42;78.17;96094.53;1776809;81;21584;-66
2022/05/05 05:49:20;;;;;;;8.10;6.90;;;;;;;10.61;77.68;96100.06;1777344;81;21046;-68
2022/05/05 05:51:47;;;;;;;10.23;7.22;;;;;;;10.81;76.31;96091.47;1776638;80;21664;-67
2022/05/05 05:54:14;;;;;;;11.20;9.97;;;;;;;11.01;76.55;96095.62;1777696;80;21497;-67
2022/05/05 05:56:40;;;;;;;8.90;7.03;;;;;;;11.23;76.91;96086.53;1778310;81;20999;-65
2022/05/05 05:59:07;;;;;;;11.43;8.30;;;;;;;11.45;75.94;96091.53;1778048;80;20983;-70
2022/05/05 06:04:19;;;;;;;9.23;7.95;;;;;;;11.94;76.06;96086.84;1777643;80;20979;-66
2022/05/05 06:06:45;;;;;;;13.70;9.48;;;;;;;12.12;73.89;96087.03;1777748;80;21552;-68
2022/05/05 06:09:13;;;;;;;10.25;8.83;;;;;;;12.34;73.23;96088.83;1778165;80;21014;-68
2022/05/05 06:11:40;;;;;;;15.93;10.00;;;;;;;12.51;72.14;96091.19;1777906;81;21103;-70
2022/05/05 06:14:07;;;;;;;10.35;7.45;;;;;;;12.72;73.10;96083.28;1778102;80;20987;-66
2022/05/05 06:16:34;;;;;;;7.58;6.70;;;;;;;12.92;70.85;96085.09;1778060;80;21011;-67
2022/05/05 06:19:00;;;;;;;7.45;6.25;;;;;;;13.09;69.63;96084.76;1778172;80;21011;-66
2022/05/05 06:21:27;;;;;;;6.95;6.25;;;;;;;13.13;66.95;96084.27;1777708;80;21026;-66
2022/05/05 06:23:54;;;;;;;10.38;6.42;;;;;;;13.16;68.80;96090.81;1778284;80;20976;-70
2022/05/05 06:26:21;;;;;;;11.08;6.17;;;;;;;13.32;69.60;96083.44;1777764;80;21058;-66
2022/05/05 06:28:49;;;;;;;8.85;7.03;;;;;;;13.37;67.05;96078.45;1775718;80;21078;-68
2022/05/05 06:31:17;;;;;;;11.88;7.45;;;;;;;13.60;68.74;96089.00;1768108;81;21497;-67
2022/05/05 06:33:44;;;;;;;10.63;7.40;;;;;;;13.83;67.39;96084.48;1770243;81;20986;-67
2022/05/05 06:36:11;;;;;;;18.82;7.58;;;;;;;13.98;67.05;96083.25;1770153;81;21580;-68
2022/05/05 06:38:39;;;;;;;12.47;7.00;;;;;;;14.15;66.15;96081.52;1768726;81;21075;-70
2022/05/05 06:41:07;;;;;;;12.95;7.00;;;;;;;14.28;64.92;96084.28;1769274;81;21616;-69
2022/05/05 06:43:35;;;;;;;7.85;6.75;;;;;;;14.49;65.87;96075.78;1768519;81;21078;-66
2022/05/05 06:46:03;;;;;;;8.40;6.47;;;;;;;14.75;66.04;96080.02;1769304;81;21125;-66
2022/05/05 06:48:31;;;;;;;8.13;6.40;;;;;;;14.96;65.80;96086.05;1768952;81;21166;-69
2022/05/05 06:50:57;;;;;;;8.48;6.67;;;;;;;15.17;64.89;96079.27;1770151;81;21051;-72
2022/05/05 06:53:24;;;;;;;11.35;6.05;;;;;;;15.38;65.36;96084.41;1769457;81;21110;-67
2022/05/05 06:55:55;;;;;;;6.10;5.50;;;;;;;15.54;63.33;96077.70;1768962;81;21496;-69
2022/05/05 06:58:19;;;;;;;8.60;6.37;;;;;;;15.68;62.98;96087.07;1771163;81;21489;-69
2022/05/05 07:03:31;;;;;;;6.95;6.15;;;;;;;16.06;61.10;96077.04;1770104;81;21346;-68
2022/05/05 07:05:57;;;;;;;10.40;6.12;;;;;;;16.20;59.24;96082.33;1770379;81;20988;-66
2022/05/05 07:08:24;;;;;;;7.15;6.08;;;;;;;16.34;59.33;96087.18;1769876;81;21074;-68
2022/05/05 07:10:53;;;;;;;6.40;5.80;;;;;;;16.61;58.72;96074.73;1769305;81;21058;-67
2022/05/05 07:13:24;;;;;;;7.90;6.72;;;;;;;16.61;58.72;96074.73;1769805;81;21094;-68
2022/05/05 07:15:52;;;;;;;6.58;5.90;;;;;;;16.78;58.10;96079.94;1770204;81;21055;-68
2022/05/05 07:18:20;;;;;;;8.05;5.75;;;;;;;16.84;57.37;96080.61;1769847;81;21134;-69
2022/05/05 07:20:46;;;;;;;6.33;5.72;;;;;;;16.97;57.20;96077.04;1770001;81;21062;-69
2022/05/05 07:23:14;;;;;;;6.50;5.75;;;;;;;17.03;57.55;96080.84;1769401;81;21126;-66
2022/05/05 07:25:42;;;;;;;6.22;5.62;;;;;;;17.08;57.46;96080.20;1770695;81;21002;-66
2022/05/05 07:28:09;;;;;;;6.60;5.95;;;;;;;17.16;57.47;96085.26;1770916;81;21020;-72
2022/05/05 07:30:36;;;;;;;7.65;6.65;;;;;;;17.18;56.83;96085.18;1763666;81;21083;-67
2022/05/05 07:33:05;;;;;;;7.58;5.58;;;;;;;17.28;57.03;96086.11;1770818;81;21081;-67
2022/05/05 07:35:32;;;;;;;6.58;5.45;;;;;;;17.31;55.03;96078.45;1770800;81;20987;-65
2022/05/05 07:37:59;;;;;;;7.10;5.50;;;;;;;17.32;55.42;96084.22;1779220;81;21106;-66
2022/05/05 07:40:26;;;;;;;5.28;4.87;;;;;;;17.40;55.83;96087.45;1778013;81;21480;-67
2022/05/05 07:42:53;;;;;;;6.30;4.75;;;;;;;17.45;53.50;96083.29;1778279;81;21173;-67
2022/05/05 07:45:20;;;;;;;5.08;4.20;;;;;;;17.54;52.59;96093.63;1778235;81;21154;-65
2022/05/05 07:47:47;;;;;;;5.03;4.40;;;;;;;17.60;48.65;96087.17;1778225;81;21540;-68
2022/05/05 07:50:14;;;;;;;5.72;4.20;;;;;;;17.61;49.31;96092.44;1779005;81;21027;-64
2022/05/05 07:52:41;;;;;;;7.10;4.45;;;;;;;17.65;48.59;96094.53;1777970;81;21054;-67
2022/05/05 07:55:09;;;;;;;3.92;3.62;;;;;;;17.66;45.56;96089.13;1778108;81;22209;-67
2022/05/05 07:57:44;;;;;;;5.20;3.92;;;;;;;17.70;45.57;96100.57;1778824;81;21034;-67
2022/05/05 08:00:13;;;;;;;4.17;3.85;;;;;;;17.79;45.93;96096.22;1778739;81;21030;-67
2022/05/05 08:02:40;;;;;;;4.92;4.17;;;;;;;17.90;46.37;96100.69;1779655;81;21019;-69
2022/05/05 08:05:11;;;;;;;7.03;3.72;;;;;;;18.00;46.17;96097.66;1779007;81;21362;-67
2022/05/05 08:07:44;;;;;;;4.45;3.90;;;;;;;18.07;46.60;96096.02;1779002;81;21117;-68
2022/05/05 08:10:11;;;;;;;3.70;3.33;;;;;;;18.19;44.06;96100.45;1773151;81;21048;-67
2022/05/05 08:12:38;;;;;;;6.97;4.47;;;;;;;18.24;42.41;96092.65;1773601;81;21089;-68
2022/05/05 08:15:08;;;;;;;4.53;3.70;;;;;;;18.33;44.28;96092.28;1774218;81;21065;-67
2022/05/05 08:17:35;;;;;;;7.78;4.05;;;;;;;18.42;40.16;96102.17;1774585;81;21531;-67
2022/05/05 08:20:04;;;;;;;5.95;4.40;;;;;;;18.43;43.71;96101.27;1774100;81;21011;-73
2022/05/05 08:22:31;;;;;;;4.62;4.10;;;;;;;18.55;44.49;96096.75;1773581;81;21104;-68
2022/05/05 08:30:30;;;;;;;22.48;15.35;;;;;;;18.74;45.02;96092.81;1769442;81;21380;-70
2022/05/05 08:32:57;;;;;;;7.58;5.42;;;;;;;18.88;44.62;96093.61;1767747;81;20999;-69
2022/05/05 08:35:24;;;;;;;4.58;4.17;;;;;;;18.92;41.24;96099.20;1773560;81;20991;-67
2022/05/05 08:37:51;;;;;;;4.58;4.12;;;;;;;19.03;42.08;96096.47;1752330;81;21530;-67
2022/05/05 08:40:18;;;;;;;5.17;3.85;;;;;;;19.12;39.32;96104.54;1747742;82;21003;-68
2022/05/05 08:42:46;;;;;;;6.37;3.67;;;;;;;19.11;37.10;96100.14;1746582;82;20986;-67
2022/05/05 08:45:13;;;;;;;4.28;3.87;;;;;;;19.26;38.50;96105.28;1743435;82;21503;-68
2022/05/05 08:47:42;;;;;;;5.17;4.30;;;;;;;19.35;36.44;96098.63;1741817;82;21085;-68
2022/05/05 08:50:13;;;;;;;4.42;3.80;;;;;;;19.37;37.29;96098.10;1742770;82;21010;-68
2022/05/05 08:52:48;;;;;;;6.78;4.53;;;;;;;19.39;39.24;96105.13;1746992;82;21053;-70
2022/05/05 08:55:18;;;;;;;5.05;4.47;;;;;;;19.61;41.12;96099.66;1741077;82;21081;-69
2022/05/05 08:57:45;;;;;;;4.50;4.10;;;;;;;19.69;36.65;96103.83;1748099;82;21047;-64
2022/05/05 09:00:15;;;;;;;4.92;4.22;;;;;;;19.83;37.77;96108.95;1727219;83;21081;-65
2022/05/05 09:02:44;;;;;;;4.65;3.75;;;;;;;19.94;36.02;96106.23;1745561;82;21128;-66
2022/05/05 09:05:12;;;;;;;8.20;5.50;;;;;;;20.07;39.19;96114.94;1745872;81;21026;-66
2022/05/05 09:07:52;;;;;;;6.25;4.22;;;;;;;20.26;39.08;96112.70;1744413;82;20990;-66
2022/05/05 09:10:21;;;;;;;4.65;4.15;;;;;;;20.38;37.14;96106.74;1747389;82;21480;-66
2022/05/05 09:13:00;;;;;;;8.65;4.20;;;;;;;20.36;35.90;96106.42;1743018;82;21053;-66
2022/05/05 09:15:36;;;;;;;4.60;4.20;;;;;;;20.34;36.98;96111.02;1743347;81;21070;-66
2022/05/05 09:18:14;;;;;;;4.62;4.12;;;;;;;20.37;37.25;96112.20;1742213;81;21575;-66
2022/05/05 09:20:43;;;;;;;5.28;4.30;;;;;;;20.48;38.31;96108.02;1742162;82;21089;-67
2022/05/05 09:23:31;;;;;;;6.33;4.40;;;;;;;20.55;36.81;96111.79;1742843;82;21484;-66
2022/05/05 09:26:00;;;;;;;5.85;4.12;;;;;;;20.55;36.88;96109.97;1742941;81;21018;-66
2022/05/05 09:28:31;;;;;;;4.90;4.42;;;;;;;20.64;38.46;96105.98;1743096;82;21085;-66
2022/05/05 09:31:07;;;;;;;5.47;4.25;;;;;;;20.35;35.90;96110.92;1742967;82;21022;-66
2022/05/05 09:33:41;;;;;;;7.72;4.45;;;;;;;20.15;38.32;96114.56;1743711;82;20975;-66
2022/05/05 09:36:14;;;;;;;5.78;3.92;;;;;;;20.02;38.75;96118.78;1743391;81;21031;-66
2022/05/05 09:38:59;;;;;;;4.87;4.10;;;;;;;20.18;40.86;96117.09;1742031;82;21024;-66
2022/05/05 09:41:34;;;;;;;5.03;4.30;;;;;;;20.42;39.67;96112.36;1741944;82;21039;-66
2022/05/05 09:44:14;;;;;;;5.75;3.87;;;;;;;20.73;38.47;96117.08;1741892;82;20992;-66
2022/05/05 09:46:43;;;;;;;4.78;4.37;;;;;;;20.94;38.48;96108.88;1741967;82;21027;-66
2022/05/05 09:49:14;;;;;;;4.97;4.17;;;;;;;21.15;39.90;96102.42;1742125;82;21469;-66
2022/05/05 09:59:51;;;;;;;4.92;4.15;;;;;;;21.25;35.05;96111.34;1721044;82;21029;-66
2022/05/05 10:05:18;;;;;;;5.20;4.47;;;;;;;21.82;36.54;96107.38;1747543;82;21029;-66
2022/05/05 10:07:47;;;;;;;4.75;4.22;;;;;;;22.02;37.13;96105.38;1744019;82;21018;-66
2022/05/05 10:10:16;;;;;;;5.28;4.33;;;;;;;22.01;36.40;96107.20;1714764;82;20983;-66
2022/05/05 10:12:43;;;;;;;4.37;3.98;;;;;;;22.07;34.87;96105.13;1759373;81;21029;-67
2022/05/05 10:15:12;;;;;;;4.92;4.53;;;;;;;22.21;35.47;96102.57;1747824;82;21007;-66
2022/05/05 10:17:40;;;;;;;4.28;3.87;;;;;;;22.28;35.21;96107.14;1744245;82;21057;-66
2022/05/05 10:20:11;;;;;;;4.35;3.90;;;;;;;22.37;34.77;96107.45;1744067;82;21076;-66
2022/05/05 10:22:49;;;;;;;4.20;3.80;;;;;;;22.39;35.30;96103.34;1743621;82;21136;-66
2022/05/05 10:25:23;;;;;;;5.53;4.12;;;;;;;22.50;34.47;96108.09;1742579;82;20998;-66
2022/05/05 10:27:49;;;;;;;6.47;4.03;;;;;;;22.51;35.51;96105.81;1754492;81;21028;-66
2022/05/05 10:30:19;;;;;;;4.28;3.60;;;;;;;22.39;33.02;96099.31;1746293;82;21101;-66
2022/05/05 10:32:46;;;;;;;4.37;3.98;;;;;;;22.45;35.65;96098.95;1741128;82;21574;-66
2022/05/05 10:35:22;;;;;;;5.47;4.12;;;;;;;22.51;35.20;96097.75;1742528;82;21053;-66
2022/05/05 10:37:50;;;;;;;6.53;4.33;;;;;;;22.67;35.65;96099.43;1758330;81;21026;-66
2022/05/05 10:40:17;;;;;;;11.97;4.28;;;;;;;22.82;34.23;96093.63;1770548;81;21033;-66
2022/05/05 10:42:51;;;;;;;4.47;3.92;;;;;;;22.97;34.49;96095.03;1770672;81;20971;-66
2022/05/05 10:45:28;;;;;;;4.50;4.05;;;;;;;23.04;35.20;96095.09;1770857;81;20994;-66
2022/05/05 10:48:06;;;;;;;4.45;4.05;;;;;;;22.92;33.34;96093.95;1770783;81;21074;-66
2022/05/05 10:50:43;;;;;;;6.22;4.10;;;;;;;23.10;33.23;96096.05;1770697;81;21503;-66
2022/05/05 10:53:10;;;;;;;4.30;4.00;;;;;;;23.22;35.58;96099.84;1770763;81;21090;-66
2022/05/05 10:55:45;;;;;;;5.03;4.53;;;;;;;23.32;32.83;96095.62;1736793;81;21002;-66
2022/05/05 10:58:33;;;;;;;4.67;4.22;;;;;;;23.32;32.26;96092.45;1770494;81;21584;-66
2022/05/05 11:01:00;;;;;;;6.00;4.12;;;;;;;23.15;32.92;96089.05;1770581;81;21022;-67
2022/05/05 11:03:27;;;;;;;5.95;3.60;;;;;;;23.32;33.64;96091.58;1770558;81;21030;-68
2022/05/05 11:05:59;;;;;;;7.83;3.85;;;;;;;23.29;33.50;96095.33;1771033;81;20962;-68
2022/05/05 11:08:31;;;;;;;4.00;3.70;;;;;;;23.44;33.96;96095.36;1764154;81;21085;-68
2022/05/05 11:13:48;;;;;;;4.42;4.00;;;;;;;23.41;33.76;96098.22;1772878;81;21010;-68
2022/05/05 11:22:20;;;;;;;7.80;4.17;;;;;;;23.66;31.39;96087.68;1772420;81;21054;-68
2022/05/05 11:24:50;;;;;;;4.35;3.95;;;;;;;23.38;33.67;96091.68;1772699;81;21607;-68
2022/05/05 11:27:23;;;;;;;7.70;6.40;;;;;;;23.40;35.35;96091.11;1772535;81;20994;-68
2022/05/05 11:29:54;;;;;;;4.20;3.80;;;;;;;23.64;31.99;96090.94;1772802;81;21026;-68
2022/05/05 11:32:24;;;;;;;4.50;4.10;;;;;;;23.47;31.63;96099.20;1772216;81;21061;-68
2022/05/05 11:34:51;;;;;;;4.42;3.95;;;;;;;23.00;31.49;96101.12;1771980;81;21022;-68
2022/05/05 11:37:17;;;;;;;8.98;4.37;;;;;;;22.74;31.50;96100.44;1736203;82;21021;-68
2022/05/05 11:39:48;;;;;;;4.42;4.03;;;;;;;22.99;32.83;96091.33;1758085;82;21035;-68
2022/05/05 11:42:15;;;;;;;4.90;3.90;;;;;;;23.58;34.28;96089.96;1734342;83;21030;-68
2022/05/05 11:44:44;;;;;;;4.80;4.40;;;;;;;24.00;33.28;96084.70;1734448;83;21057;-68
2022/05/05 11:47:18;;;;;;;4.35;3.95;;;;;;;23.90;33.86;96089.32;1758087;82;21058;-68
2022/05/05 11:49:52;;;;;;;11.48;4.53;;;;;;;23.79;32.44;96083.77;1733006;83;21042;-68
2022/05/05 11:52:25;;;;;;;3.92;3.62;;;;;;;23.83;32.13;96079.89;1758121;82;21508;-68
2022/05/05 11:54:53;;;;;;;;;;;;;;;24.29;30.77;96083.69;1737155;83;21067;-69
2022/05/05 11:57:39;;;;;;;5.37;3.80;;;;;;;24.31;32.19;96086.27;1795793;80;20108;-68
2022/05/05 12:02:55;;;;;;;4.42;3.67;;;;;;;25.48;30.00;96077.46;1795642;80;20998;-69
2022/05/05 12:05:24;;;;;;;4.53;3.60;;;;;;;25.74;27.03;96082.00;1795331;80;21498;-69
2022/05/05 12:07:53;;;;;;;3.90;3.50;;;;;;;25.92;29.07;96087.95;1795450;80;21495;-69
2022/05/05 12:10:21;;;;;;;6.85;3.52;;;;;;;25.31;28.91;96087.23;1795628;80;21078;-68
2022/05/05 12:12:50;;;;;;;3.80;3.47;;;;;;;24.76;29.69;96094.52;1795235;80;21034;-68
2022/05/05 12:15:20;;;;;;;3.58;3.27;;;;;;;24.25;30.03;96090.23;1795531;80;21049;-66
2022/05/05 12:17:58;;;;;;;3.75;3.40;;;;;;;23.74;30.85;96089.92;1795586;80;20998;-66
2022/05/05 12:20:23;;;;;;;4.03;3.62;;;;;;;23.40;30.65;96091.11;1795438;80;20986;-66
2022/05/05 12:23:00;;;;;;;5.05;4.03;;;;;;;22.94;33.25;96095.22;1795447;80;21464;-66